Flight Track Log - Related Links

Times and Time Zones

All times are in EST time to prevent confusion due to time zone crossing. See the FIN666 flight status page for this flight to view local times or setup timezone preferences in your user account.

Time Position Orientation Groundspeed Altitude Reporting Facility
EST Latitude Longitude Course Direction KTS MPH feet Rate Location/Type
Sun 07:37:00 AM 55.8191 13.0714 49° Northeast  Level Estimated
Sun 07:38:00 AM 55.8859 13.2108 49° Northeast  Level Estimated
Sun 07:39:00 AM 55.9525 13.3507 50° Northeast  Level Estimated
Sun 07:40:00 AM 56.0265 13.5072 50° Northeast  Level Estimated
Sun 07:41:00 AM 56.1004 13.6643 50° Northeast  Level Estimated
Sun 07:42:00 AM 56.1740 13.8220 50° Northeast  Level Estimated
Sun 07:43:00 AM 56.2474 13.9802 50° Northeast  Level Estimated
Sun 07:44:00 AM 56.3206 14.1391 50° Northeast  Level Estimated
Sun 07:45:00 AM 56.3937 14.2986 50° Northeast  Level Estimated
Sun 07:46:00 AM 56.4665 14.4587 50° Northeast  Level Estimated
Sun 07:47:00 AM 56.5391 14.6195 51° Northeast  Level Estimated
Sun 07:48:00 AM 56.6115 14.7808 51° Northeast  Level Estimated
Sun 07:49:00 AM 56.6837 14.9428 51° Northeast  Level Estimated
Sun 07:50:00 AM 56.7556 15.1053 51° Northeast  Level Estimated
Sun 07:51:00 AM 56.8274 15.2685 51° Northeast  Level Estimated
Sun 07:52:00 AM 56.8990 15.4324 51° Northeast  Level Estimated
Sun 07:53:00 AM 56.9703 15.5968 51° Northeast  Level Estimated
Sun 07:54:00 AM 57.0414 15.7619 52° Northeast  Level Estimated
Sun 07:55:00 AM 57.1123 15.9276 52° Northeast  Level Estimated
Sun 07:56:00 AM 57.1830 16.0940 52° Northeast  Level Estimated
Sun 07:57:00 AM 57.2535 16.2610 52° Northeast  Level Estimated
Sun 07:58:00 AM 57.3237 16.4286 52° Northeast  Level Estimated
Sun 07:59:00 AM 57.3937 16.5969 52° Northeast  Level Estimated
Sun 08:00:00 AM 57.4625 16.7634 52° Northeast  Level Estimated
Sun 08:01:00 AM 57.5311 16.9306 53° Northeast  Level Estimated
Sun 08:02:00 AM 57.5995 17.0984 53° Northeast  Level Estimated
Sun 08:03:00 AM 57.6676 17.2668 53° Northeast  Level Estimated
Sun 08:04:00 AM 57.7356 17.4358 53° Northeast  Level Estimated
Sun 08:05:00 AM 57.8032 17.6055 53° Northeast  Level Estimated
Sun 08:06:00 AM 57.8707 17.7758 53° Northeast  Level Estimated
Sun 08:07:00 AM 57.9380 17.9468 53° Northeast  Level Estimated
Sun 08:08:00 AM 58.0050 18.1184 54° Northeast  Level Estimated
Sun 08:09:00 AM 58.0717 18.2906 54° Northeast  Level Estimated
Sun 08:10:00 AM 58.1383 18.4635 54° Northeast  Level Estimated
Sun 08:11:00 AM 58.2046 18.6371 54° Northeast  Level Estimated
Sun 08:12:00 AM 58.2707 18.8112 54° Northeast  Level Estimated
Sun 08:13:00 AM 58.3365 18.9861 54° Northeast  Level Estimated
Sun 08:14:00 AM 58.4021 19.1615 54° Northeast  Level Estimated
Sun 08:15:00 AM 58.4674 19.3377 55° Northeast  Level Estimated
Sun 08:16:00 AM 58.5325 19.5145 55° Northeast  Level Estimated
Sun 08:17:00 AM 58.5974 19.6919 55° Northeast  Level Estimated
Sun 08:18:00 AM 58.6620 19.8700 55° Northeast  Level Estimated
Sun 08:19:00 AM 58.7264 20.0488 55° Northeast  Level Estimated
Sun 08:20:00 AM 58.7905 20.2282 55° Northeast  Level Estimated
Sun 08:21:00 AM 58.8544 20.4083 56° Northeast  Level Estimated
Sun 08:22:00 AM 58.9180 20.5891 56° Northeast  Level Estimated
Sun 08:23:00 AM 58.9814 20.7705 56° Northeast  Level Estimated
Sun 08:24:00 AM 59.0445 20.9526 56° Northeast  Level Estimated
Sun 08:25:00 AM 59.1074 21.1353 56° Northeast  Level Estimated
Sun 08:26:00 AM 59.1700 21.3188 56° Northeast  Level Estimated
Sun 08:27:00 AM 59.2323 21.5029 56° Northeast  Level Estimated
Sun 08:28:00 AM 59.2944 21.6876 57° Northeast  Level Estimated
Sun 08:29:00 AM 59.3562 21.8731 57° Northeast  Level Estimated
Sun 08:30:00 AM 59.4178 22.0592 57° Northeast  Level Estimated
Sun 08:31:00 AM 59.4791 22.2460 57° Northeast  Level Estimated
Sun 08:32:00 AM 59.5401 22.4335 57° Northeast  Level Estimated
Sun 08:33:00 AM 59.6008 22.6216 57° Northeast  Level Estimated
Sun 08:34:00 AM 59.6613 22.8104 58° Northeast  Level Estimated
Sun 08:35:00 AM 59.7215 23.0000 58° Northeast  Level Estimated
Sun 08:36:00 AM 59.7815 23.1901 58° Northeast  Level Estimated
Sun 08:37:00 AM 59.8411 23.3810 58° Northeast  Level Estimated
Sun 08:38:00 AM 59.9005 23.5726 58° Northeast  Level Estimated
Sun 08:39:00 AM 59.9596 23.7648 58° Northeast  Level Estimated
Sun 08:40:00 AM 60.0185 23.9578 59° Northeast  Level Estimated
Sun 08:41:00 AM 60.0770 24.1514 59° Northeast  Level Estimated
Sun 08:42:00 AM 60.1353 24.3457 59° Northeast  Level Estimated
Sun 08:43:00 AM 60.1958 24.5493 59° Northeast  Level Estimated
Sun 08:44:00 AM 60.2560 24.7537 59° Northeast  Level Estimated
Sun 08:45:00 AM 60.3159 24.9588 59° Northeast  Level Estimated
Sun 08:46:00 AM 60.3172 24.9633 59° Northeast  Level Estimated
Sun 08:47:00 AM 60.3172 24.9633 37° Northeast  Level Estimated
Sun 08:48:00 AM 60.3172 24.9633 37° Northeast  Level Estimated
Sun 08:49:00 AM 60.3172 24.9633 37° Northeast  Level Estimated
Sun 08:50:00 AM 60.3172 24.9633 37° Northeast  Level Estimated
Sun 08:51:00 AM 60.3172 24.9633 37° Northeast  Level Estimated
Sun 08:52:00 AM 60.3172 24.9633 37° Northeast  Level Estimated
Sun 08:53:00 AM 60.3172 24.9633 37° Northeast  Level Estimated
Sun 08:54:00 AM 60.3172 24.9633 37° Northeast  Level Estimated
Sun 08:55:00 AM 60.3172 24.9633 37° Northeast  Level Estimated

Login

Don't have an account? Register now (free) for customized features, flight alerts, and more!